createdAt,value
2023-04-27T05:01:13.104Z,500.00
2023-04-27T05:02:13.050Z,500.00
2023-04-27T05:03:13.340Z,500.00
2023-04-27T05:04:13.281Z,500.00
2023-04-27T05:05:13.017Z,500.00
2023-04-27T05:06:13.023Z,500.00
2023-04-27T05:07:14.702Z,400.00
2023-04-27T05:08:13.027Z,400.00
2023-04-27T05:09:13.182Z,400.00
2023-04-27T05:10:13.037Z,400.00
2023-04-27T05:11:13.042Z,400.00
2023-04-27T05:12:12.996Z,400.00
2023-04-27T05:13:13.059Z,400.00
2023-04-27T05:14:13.004Z,400.00
2023-04-27T05:15:13.004Z,400.00
2023-04-27T05:16:13.057Z,400.00
2023-04-27T05:17:13.071Z,400.00
2023-04-27T05:18:13.096Z,400.00
2023-04-27T05:19:13.298Z,400.00
2023-04-27T05:20:13.112Z,400.00
2023-04-27T05:21:13.194Z,400.00
2023-04-27T05:22:13.233Z,400.00
2023-04-27T05:23:13.296Z,400.00
2023-04-27T05:24:13.330Z,400.00
2023-04-27T05:25:13.439Z,400.00
2023-04-27T05:26:13.427Z,400.00
2023-04-27T05:27:13.503Z,400.00
2023-04-27T05:28:13.569Z,400.00
2023-04-27T05:29:13.814Z,400.00
2023-04-27T05:30:13.661Z,400.00
2023-04-27T05:31:13.763Z,400.00
2023-04-27T05:32:13.758Z,400.00
2023-04-27T05:33:13.849Z,424.00
2023-04-27T05:34:13.900Z,469.00
2023-04-27T05:35:13.966Z,500.00
2023-04-27T05:36:14.112Z,500.00
2023-04-27T05:37:14.100Z,500.00
2023-04-27T05:38:14.128Z,500.00
2023-04-27T05:39:14.341Z,500.00
2023-04-27T05:40:14.248Z,500.00
2023-04-27T05:41:14.291Z,500.00
2023-04-27T05:42:14.322Z,500.00
2023-04-27T05:43:14.378Z,500.00
2023-04-27T05:44:14.424Z,500.00
2023-04-27T05:45:14.458Z,502.00
2023-04-27T05:46:14.530Z,501.00
2023-04-27T05:47:14.524Z,504.00
2023-04-27T05:48:14.535Z,501.00
2023-04-27T05:49:14.918Z,509.00
2023-04-27T05:50:14.640Z,507.00
2023-04-27T05:51:14.676Z,516.00
2023-04-27T05:52:14.745Z,513.00
2023-04-27T05:53:14.870Z,509.00
2023-04-27T05:54:14.796Z,504.00
2023-04-27T05:55:14.902Z,500.00
2023-04-27T05:56:14.895Z,500.00
2023-04-27T05:57:15.059Z,498.00
2023-04-27T05:58:14.980Z,499.00
2023-04-27T05:59:15.499Z,490.00
2023-04-27T06:00:15.165Z,494.00
2023-04-27T06:01:15.144Z,503.00
2023-04-27T06:02:15.311Z,550.00
2023-04-27T06:03:15.251Z,567.00
2023-04-27T06:04:15.401Z,571.00
2023-04-27T06:05:15.179Z,575.00
2023-04-27T06:06:15.222Z,531.00
2023-04-27T06:08:16.130Z,570.00
2023-04-27T06:09:15.482Z,577.00
2023-04-27T06:10:15.244Z,563.00
2023-04-27T06:11:15.276Z,509.00
2023-04-27T06:12:15.272Z,499.00
2023-04-27T06:13:15.305Z,500.00
2023-04-27T06:14:15.329Z,500.00
2023-04-27T06:15:16.161Z,516.00
2023-04-27T06:16:15.417Z,543.00
2023-04-27T06:17:15.373Z,544.00
2023-04-27T06:18:15.459Z,551.00
2023-04-27T06:19:15.608Z,555.00
2023-04-27T06:20:15.404Z,562.00
2023-04-27T06:21:15.420Z,566.00
2023-04-27T06:22:15.416Z,576.00
2023-04-27T06:23:15.490Z,579.00
2023-04-27T06:24:15.575Z,593.00
2023-04-27T06:25:15.666Z,593.00
2023-04-27T06:26:15.632Z,593.00
2023-04-27T06:27:15.619Z,593.00
2023-04-27T06:28:15.623Z,581.00
2023-04-27T06:29:15.778Z,581.00
2023-04-27T06:30:15.566Z,577.00
2023-04-27T06:31:15.586Z,578.00
2023-04-27T06:32:15.548Z,572.00
2023-04-27T06:33:15.613Z,572.00
2023-04-27T06:34:15.514Z,579.00
2023-04-27T06:35:15.521Z,591.00
2023-04-27T06:36:15.526Z,601.00
2023-04-27T06:37:15.522Z,603.00
2023-04-27T06:38:15.567Z,598.00
2023-04-27T06:39:15.666Z,601.00
2023-04-27T06:40:15.731Z,600.00
2023-04-27T06:41:15.693Z,580.00
2023-04-27T06:42:16.058Z,569.00
2023-04-27T06:43:15.726Z,577.00
2023-04-27T06:44:15.775Z,578.00
2023-04-27T06:45:15.772Z,577.00
2023-04-27T06:46:15.686Z,587.00
2023-04-27T06:47:15.728Z,613.00
2023-04-27T06:48:15.796Z,613.00
2023-04-27T06:49:16.061Z,591.00
2023-04-27T06:50:15.833Z,581.00
2023-04-27T06:51:15.677Z,564.00
2023-04-27T06:52:15.743Z,561.00
2023-04-27T06:53:15.699Z,544.00
2023-04-27T06:54:15.691Z,538.00
2023-04-27T06:55:15.691Z,523.00
2023-04-27T06:56:15.857Z,535.00
2023-04-27T06:57:15.764Z,530.00
2023-04-27T06:58:15.772Z,521.00
2023-04-27T06:59:15.805Z,525.00
2023-04-27T07:00:15.763Z,530.00
2023-04-27T07:01:16.614Z,527.00
2023-04-27T07:02:15.844Z,535.00
2023-04-27T07:03:15.886Z,544.00
2023-04-27T07:04:15.952Z,578.00
2023-04-27T07:05:15.834Z,602.00
2023-04-27T07:06:15.834Z,606.00
2023-04-27T07:07:15.841Z,614.00
2023-04-27T07:08:15.915Z,612.00
2023-04-27T07:09:26.670Z,621.00
2023-04-27T07:10:17.040Z,621.00
2023-04-27T07:11:15.966Z,624.00
2023-04-27T07:12:16.007Z,630.00
2023-04-27T07:13:15.961Z,639.00
2023-04-27T07:14:16.061Z,664.00
2023-04-27T07:15:15.919Z,667.00
2023-04-27T07:16:16.110Z,658.00
2023-04-27T07:17:16.114Z,653.00
2023-04-27T07:18:15.954Z,660.00
2023-04-27T07:19:16.194Z,660.00
2023-04-27T07:20:15.910Z,661.00
2023-04-27T07:21:17.675Z,665.00
2023-04-27T07:22:16.618Z,676.00
2023-04-27T07:23:15.910Z,688.00
2023-04-27T07:24:15.980Z,682.00
2023-04-27T07:25:15.962Z,687.00
2023-04-27T07:26:15.937Z,685.00
2023-04-27T07:27:15.961Z,704.00
2023-04-27T07:28:15.997Z,710.00
2023-04-27T07:29:26.175Z,666.00
2023-04-27T07:30:17.101Z,666.00
2023-04-27T07:31:16.087Z,663.00
2023-04-27T07:32:16.090Z,659.00
2023-04-27T07:33:16.037Z,670.00
2023-04-27T07:34:16.844Z,658.00
2023-04-27T07:35:16.233Z,653.00
2023-04-27T07:36:16.039Z,657.00
2023-04-27T07:37:16.030Z,656.00
2023-04-27T07:38:16.025Z,654.00
2023-04-27T07:39:16.282Z,659.00
2023-04-27T07:40:16.113Z,653.00
2023-04-27T07:41:16.154Z,659.00
2023-04-27T07:42:16.356Z,655.00
2023-04-27T07:43:16.253Z,646.00
2023-04-27T07:44:16.285Z,664.00
2023-04-27T07:45:16.316Z,719.00
2023-04-27T07:46:16.388Z,726.00
2023-04-27T07:47:16.325Z,737.00
2023-04-27T07:48:16.415Z,727.00
2023-04-27T07:49:16.387Z,737.00
2023-04-27T07:50:18.264Z,770.00
2023-04-27T07:51:16.485Z,769.00
2023-04-27T07:52:16.452Z,792.00
2023-04-27T07:53:16.515Z,796.00
2023-04-27T07:54:16.469Z,822.00
2023-04-27T07:55:16.480Z,827.00
2023-04-27T07:56:16.516Z,815.00
2023-04-27T07:57:16.529Z,798.00
2023-04-27T07:58:16.493Z,823.00
2023-04-27T07:59:16.716Z,816.00
2023-04-27T08:00:16.695Z,810.00
2023-04-27T08:01:17.604Z,797.00
2023-04-27T08:02:20.057Z,814.00
2023-04-27T08:03:16.705Z,815.00
2023-04-27T08:04:16.751Z,819.00
2023-04-27T08:05:16.973Z,836.00
2023-04-27T08:06:17.045Z,854.00
2023-04-27T08:07:16.544Z,890.00
2023-04-27T08:08:16.944Z,911.00
2023-04-27T08:09:16.456Z,919.00
2023-04-27T08:10:16.467Z,900.00
2023-04-27T08:11:16.445Z,925.00
2023-04-27T08:12:16.413Z,940.00
2023-04-27T08:13:16.438Z,933.00
2023-04-27T08:14:16.418Z,972.00
2023-04-27T08:15:16.411Z,966.00
2023-04-27T08:16:16.473Z,954.00
2023-04-27T08:17:16.572Z,955.00
2023-04-27T08:18:16.517Z,956.00
2023-04-27T08:19:16.496Z,956.00
2023-04-27T08:20:16.356Z,928.00
2023-04-27T08:21:16.562Z,899.00
2023-04-27T08:22:16.423Z,819.00
2023-04-27T08:23:16.359Z,844.00
2023-04-27T08:24:16.348Z,851.00
2023-04-27T08:25:16.391Z,788.00
2023-04-27T08:26:16.390Z,794.00
2023-04-27T08:27:16.313Z,783.00
2023-04-27T08:28:16.337Z,791.00
2023-04-27T08:29:27.049Z,771.00
2023-04-27T08:30:17.355Z,746.00
2023-04-27T08:31:16.403Z,731.00
2023-04-27T08:32:16.357Z,735.00
2023-04-27T08:33:16.308Z,737.00
2023-04-27T08:34:16.324Z,761.00
2023-04-27T08:35:16.350Z,788.00
2023-04-27T08:36:17.149Z,795.00
2023-04-27T08:37:16.273Z,783.00
2023-04-27T08:38:16.381Z,809.00
2023-04-27T08:39:16.268Z,835.00
2023-04-27T08:40:16.312Z,747.00
2023-04-27T08:41:22.172Z,498.00
2023-04-27T08:42:16.334Z,400.00
2023-04-27T08:43:16.388Z,400.00
2023-04-27T08:44:16.290Z,400.00
2023-04-27T08:45:16.255Z,400.00
2023-04-27T08:46:16.245Z,400.00
2023-04-27T08:47:16.230Z,400.00
2023-04-27T08:48:16.388Z,400.00
2023-04-27T08:49:17.233Z,400.00
2023-04-27T08:50:16.213Z,400.00
2023-04-27T08:51:16.194Z,400.00
2023-04-27T08:52:16.207Z,400.00
2023-04-27T08:53:16.195Z,400.00
2023-04-27T08:54:16.685Z,438.00
2023-04-27T08:55:16.863Z,457.00
2023-04-27T08:56:16.146Z,455.00
2023-04-27T08:57:16.182Z,497.00
2023-04-27T08:58:16.138Z,513.00
2023-04-27T08:59:16.908Z,585.00
2023-04-27T09:00:16.149Z,581.00
2023-04-27T09:01:16.206Z,592.00
2023-04-27T09:02:16.423Z,551.00
2023-04-27T09:03:16.210Z,579.00
2023-04-27T09:04:16.272Z,570.00
2023-04-27T09:05:16.169Z,528.00
2023-04-27T09:06:16.125Z,513.00
2023-04-27T09:07:16.126Z,520.00
2023-04-27T09:08:16.126Z,503.00
2023-04-27T09:09:16.215Z,517.00
2023-04-27T09:10:16.110Z,535.00
2023-04-27T09:11:16.056Z,528.00
2023-04-27T09:12:16.069Z,525.00
2023-04-27T09:13:16.090Z,578.00
2023-04-27T09:14:16.088Z,613.00
2023-04-27T09:15:16.146Z,618.00
2023-04-27T09:16:16.094Z,598.00
2023-04-27T09:17:16.027Z,601.00
2023-04-27T09:18:16.056Z,638.00
2023-04-27T09:19:16.179Z,638.00
2023-04-27T09:20:16.093Z,551.00
2023-04-27T09:21:16.153Z,556.00
2023-04-27T09:22:16.205Z,600.00
2023-04-27T09:23:16.280Z,608.00
2023-04-27T09:24:16.291Z,576.00
2023-04-27T09:25:16.436Z,538.00
2023-04-27T09:26:16.432Z,510.00
2023-04-27T09:27:16.565Z,506.00
2023-04-27T09:28:17.132Z,537.00
2023-04-27T09:29:16.575Z,557.00
2023-04-27T09:30:16.645Z,584.00
2023-04-27T09:31:16.736Z,594.00
2023-04-27T09:32:17.210Z,592.00
2023-04-27T09:33:18.253Z,620.00
2023-04-27T09:34:18.193Z,632.00
2023-04-27T09:35:16.897Z,759.00
2023-04-27T09:36:17.078Z,889.00
2023-04-27T09:37:17.332Z,1080.00
2023-04-27T09:38:17.154Z,1209.00
2023-04-27T09:39:16.961Z,1359.00
2023-04-27T09:40:16.984Z,1451.00
2023-04-27T09:41:17.005Z,1503.00
2023-04-27T09:42:17.065Z,1588.00
2023-04-27T09:43:17.119Z,1670.00
2023-04-27T09:44:17.363Z,1636.00
2023-04-27T09:45:17.236Z,1677.00
2023-04-27T09:46:17.281Z,1746.00
2023-04-27T09:47:17.267Z,1803.00
2023-04-27T09:48:17.285Z,1856.00
2023-04-27T09:49:17.272Z,1905.00
2023-04-27T09:50:17.281Z,1949.00
2023-04-27T09:51:17.309Z,1990.00
2023-04-27T09:52:17.309Z,2058.00
2023-04-27T09:53:17.296Z,2127.00
2023-04-27T09:54:17.328Z,2192.00
2023-04-27T09:55:17.384Z,2213.00
2023-04-27T09:56:17.440Z,2240.00
2023-04-27T09:57:20.417Z,2291.00
2023-04-27T09:58:26.038Z,2320.00
2023-04-27T09:59:17.676Z,2323.00
2023-04-27T10:00:17.691Z,2329.00
2023-04-27T10:01:17.837Z,2333.00
2023-04-27T10:03:18.855Z,2322.00
2023-04-27T10:04:17.993Z,2320.00
2023-04-27T10:05:17.883Z,2305.00
2023-04-27T10:06:17.813Z,2320.00
2023-04-27T10:07:17.803Z,2323.00
2023-04-27T10:08:17.763Z,2307.00
2023-04-27T10:09:17.765Z,2318.00
2023-04-27T10:10:17.869Z,2327.00
2023-04-27T10:11:17.776Z,2344.00
2023-04-27T10:12:17.764Z,2313.00
2023-04-27T10:13:17.760Z,2331.00
2023-04-27T10:14:17.802Z,2351.00
2023-04-27T10:15:17.856Z,2340.00
2023-04-27T10:16:17.960Z,2361.00
2023-04-27T10:17:17.910Z,2351.00
2023-04-27T10:18:17.969Z,2368.00
2023-04-27T10:19:18.064Z,2335.00
2023-04-27T10:20:18.059Z,2186.00
2023-04-27T10:21:18.115Z,2110.00
2023-04-27T10:22:18.162Z,2114.00
2023-04-27T10:23:18.155Z,2127.00
2023-04-27T10:24:18.231Z,2128.00
2023-04-27T10:25:18.277Z,2108.00
2023-04-27T10:26:18.345Z,1807.00
2023-04-27T10:27:18.320Z,1963.00
2023-04-27T10:28:18.376Z,1955.00
2023-04-27T10:29:18.376Z,1939.00
2023-04-27T10:30:18.487Z,1552.00
2023-04-27T10:31:18.539Z,973.00
2023-04-27T10:32:18.601Z,1026.00
2023-04-27T10:33:18.653Z,1070.00
2023-04-27T10:34:21.329Z,1223.00
2023-04-27T10:35:18.686Z,1528.00
2023-04-27T10:36:18.662Z,1602.00
2023-04-27T10:37:18.658Z,1626.00
2023-04-27T10:38:18.640Z,1616.00
2023-04-27T10:39:18.649Z,1642.00
2023-04-27T10:40:18.664Z,1555.00
2023-04-27T10:41:18.635Z,1448.00
2023-04-27T10:42:18.621Z,1235.00
2023-04-27T10:43:18.593Z,1024.00
2023-04-27T10:44:18.618Z,904.00
2023-04-27T10:45:18.587Z,1037.00
2023-04-27T10:46:18.634Z,1112.00
2023-04-27T10:47:18.566Z,1227.00
2023-04-27T10:48:18.600Z,1311.00
2023-04-27T10:49:18.573Z,1394.00
2023-04-27T10:50:18.548Z,1414.00
2023-04-27T10:51:18.561Z,1449.00
2023-04-27T10:52:18.522Z,1490.00
2023-04-27T10:53:18.569Z,1528.00
2023-04-27T10:54:18.555Z,1546.00
2023-04-27T10:55:18.549Z,1559.00
2023-04-27T10:56:18.499Z,1606.00
2023-04-27T10:57:18.517Z,1666.00
2023-04-27T10:58:18.495Z,1695.00
2023-04-27T10:59:18.504Z,1746.00
2023-04-27T11:00:18.550Z,1775.00
2023-04-27T11:01:18.538Z,1792.00
2023-04-27T11:02:18.572Z,1799.00
2023-04-27T11:03:18.571Z,1810.00
2023-04-27T11:04:18.529Z,1832.00
2023-04-27T11:05:18.431Z,1849.00
2023-04-27T11:06:18.438Z,1859.00
2023-04-27T11:07:18.456Z,1877.00
2023-04-27T11:08:18.437Z,1869.00
2023-04-27T11:09:18.438Z,1873.00
2023-04-27T11:10:18.423Z,1909.00
2023-04-27T11:11:18.386Z,1921.00
2023-04-27T11:12:18.371Z,1924.00
2023-04-27T11:13:18.441Z,1953.00
2023-04-27T11:14:18.375Z,1932.00
2023-04-27T11:15:18.393Z,1950.00
2023-04-27T11:16:18.419Z,1948.00
2023-04-27T11:17:18.375Z,1972.00
2023-04-27T11:18:18.350Z,1986.00
2023-04-27T11:19:18.348Z,2004.00
2023-04-27T11:20:18.389Z,2050.00
2023-04-27T11:21:18.354Z,2063.00
2023-04-27T11:22:18.314Z,2078.00
2023-04-27T11:23:18.325Z,2056.00
2023-04-27T11:24:18.387Z,2039.00
2023-04-27T11:25:18.332Z,2040.00
2023-04-27T11:26:18.294Z,2047.00
2023-04-27T11:27:18.320Z,2087.00
2023-04-27T11:28:18.300Z,2063.00
2023-04-27T11:29:18.340Z,2079.00
2023-04-27T11:30:18.335Z,2064.00
2023-04-27T11:31:18.344Z,2107.00
2023-04-27T11:32:18.273Z,2103.00
2023-04-27T11:33:18.286Z,2129.00
2023-04-27T11:34:19.389Z,2091.00
2023-04-27T11:35:18.273Z,2099.00
2023-04-27T11:36:18.292Z,2130.00
2023-04-27T11:37:18.823Z,2126.00
2023-04-27T11:38:18.206Z,2141.00
2023-04-27T11:39:18.285Z,2163.00
2023-04-27T11:40:18.287Z,2155.00
2023-04-27T11:41:18.230Z,2169.00
2023-04-27T11:42:18.254Z,2173.00
2023-04-27T11:43:18.221Z,2213.00
2023-04-27T11:44:18.190Z,2220.00
2023-04-27T11:45:18.201Z,2203.00
2023-04-27T11:46:18.227Z,2187.00
2023-04-27T11:47:18.924Z,2194.00
2023-04-27T11:48:18.182Z,2202.00
2023-04-27T11:49:18.162Z,2159.00
2023-04-27T11:50:18.135Z,2231.00
2023-04-27T11:51:18.154Z,2273.00
2023-04-27T11:52:18.139Z,2287.00
2023-04-27T11:53:18.861Z,2274.00
2023-04-27T11:54:18.210Z,2283.00
2023-04-27T11:55:18.274Z,2272.00
2023-04-27T11:56:18.369Z,2257.00
2023-04-27T11:57:18.409Z,2246.00
2023-04-27T11:58:18.445Z,2239.00
2023-04-27T11:59:18.483Z,2282.00
2023-04-27T12:00:18.523Z,2255.00
2023-04-27T12:01:27.697Z,2288.00
2023-04-27T12:02:19.671Z,2289.00
2023-04-27T12:03:18.677Z,2280.00
2023-04-27T12:04:19.035Z,2278.00
2023-04-27T12:05:18.746Z,2256.00
2023-04-27T12:06:32.285Z,2244.00
2023-04-27T12:07:19.545Z,2255.00
2023-04-27T12:08:18.522Z,2275.00
2023-04-27T12:09:18.540Z,2259.00
2023-04-27T12:10:18.523Z,2254.00
2023-04-27T12:11:18.508Z,2183.00
2023-04-27T12:12:18.511Z,1574.00
2023-04-27T12:13:18.551Z,1773.00
2023-04-27T12:14:18.549Z,1276.00
2023-04-27T12:15:18.530Z,1300.00
2023-04-27T12:16:18.571Z,824.00
2023-04-27T12:17:18.564Z,639.00
2023-04-27T12:18:18.601Z,616.00
2023-04-27T12:19:18.617Z,559.00
2023-04-27T12:20:18.705Z,536.00
2023-04-27T12:21:18.680Z,521.00
2023-04-27T12:22:18.727Z,501.00
2023-04-27T12:23:18.794Z,470.00
2023-04-27T12:24:18.864Z,513.00
2023-04-27T12:25:18.959Z,490.00
2023-04-27T12:26:18.994Z,522.00
2023-04-27T12:27:19.027Z,508.00
2023-04-27T12:28:19.018Z,499.00
2023-04-27T12:29:19.040Z,500.00
2023-04-27T12:30:19.028Z,507.00
2023-04-27T12:31:19.117Z,501.00
2023-04-27T12:32:19.043Z,553.00
2023-04-27T12:33:19.187Z,589.00
2023-04-27T12:34:19.125Z,632.00
2023-04-27T12:35:19.134Z,664.00
2023-04-27T12:36:19.165Z,635.00
2023-04-27T12:37:19.197Z,554.00
2023-04-27T12:38:19.240Z,537.00
2023-04-27T12:39:19.254Z,581.00
2023-04-27T12:40:19.250Z,604.00
2023-04-27T12:41:19.273Z,633.00
2023-04-27T12:42:19.327Z,714.00
2023-04-27T12:43:19.314Z,871.00
2023-04-27T12:44:19.291Z,941.00
2023-04-27T12:45:19.426Z,770.00
2023-04-27T12:46:19.448Z,857.00
2023-04-27T12:47:38.392Z,985.00
2023-04-27T12:48:20.478Z,992.00
2023-04-27T12:49:19.430Z,1038.00
2023-04-27T12:50:19.432Z,1109.00
2023-04-27T12:51:19.453Z,1175.00
2023-04-27T12:52:19.450Z,1140.00
2023-04-27T12:53:19.394Z,1165.00
2023-04-27T12:54:19.386Z,1241.00
2023-04-27T12:55:31.465Z,1019.00
2023-04-27T12:56:20.389Z,1019.00
2023-04-27T12:57:19.392Z,905.00
2023-04-27T12:58:19.337Z,729.00
2023-04-27T12:59:19.369Z,784.00
2023-04-27T13:00:19.336Z,977.00
2023-04-27T13:01:19.394Z,850.00
2023-04-27T13:02:19.351Z,762.00
2023-04-27T13:03:19.509Z,804.00
2023-04-27T13:04:19.932Z,925.00
2023-04-27T13:05:19.380Z,856.00
2023-04-27T13:06:19.412Z,725.00
2023-04-27T13:07:19.486Z,706.00
2023-04-27T13:08:19.547Z,727.00
2023-04-27T13:09:19.568Z,659.00
2023-04-27T13:10:19.646Z,828.00
2023-04-27T13:11:19.691Z,1036.00
2023-04-27T13:12:19.673Z,745.00
2023-04-27T13:13:19.670Z,582.00
2023-04-27T13:14:19.748Z,521.00
2023-04-27T13:15:19.759Z,539.00
2023-04-27T13:16:19.808Z,577.00
2023-04-27T13:17:19.808Z,588.00
2023-04-27T13:18:19.903Z,614.00
2023-04-27T13:19:19.848Z,633.00
2023-04-27T13:20:19.832Z,625.00
2023-04-27T13:21:19.844Z,579.00
2023-04-27T13:22:19.846Z,553.00
2023-04-27T13:23:19.919Z,587.00
2023-04-27T13:24:19.850Z,620.00
2023-04-27T13:25:19.881Z,614.00
2023-04-27T13:26:19.931Z,648.00
2023-04-27T13:27:19.944Z,660.00
2023-04-27T13:28:19.967Z,602.00
2023-04-27T13:29:19.993Z,608.00
2023-04-27T13:30:20.064Z,714.00
2023-04-27T13:31:20.194Z,804.00
2023-04-27T13:32:20.237Z,749.00
2023-04-27T13:33:23.134Z,703.00
2023-04-27T13:34:20.204Z,821.00
2023-04-27T13:35:20.206Z,747.00
2023-04-27T13:36:20.203Z,858.00
2023-04-27T13:37:20.210Z,723.00
2023-04-27T13:38:20.215Z,606.00
2023-04-27T13:39:20.190Z,656.00
2023-04-27T13:40:20.177Z,651.00
2023-04-27T13:41:20.213Z,631.00
2023-04-27T13:42:20.167Z,650.00
2023-04-27T13:43:20.195Z,610.00
2023-04-27T13:44:20.148Z,660.00
2023-04-27T13:45:20.143Z,557.00
2023-04-27T13:46:20.198Z,509.00
2023-04-27T13:47:20.164Z,499.00
2023-04-27T13:48:20.153Z,486.00
2023-04-27T13:49:20.135Z,500.00
2023-04-27T13:50:20.155Z,500.00
2023-04-27T13:51:20.091Z,507.00
2023-04-27T13:52:20.105Z,508.00
2023-04-27T13:53:20.102Z,515.00
2023-04-27T13:54:20.093Z,500.00
2023-04-27T13:55:20.114Z,508.00
2023-04-27T13:56:20.075Z,520.00
2023-04-27T13:57:20.080Z,543.00
2023-04-27T13:58:20.089Z,552.00
2023-04-27T13:59:20.086Z,570.00
2023-04-27T14:00:20.070Z,612.00
2023-04-27T14:01:20.111Z,680.00
2023-04-27T14:02:20.105Z,849.00
2023-04-27T14:03:20.240Z,1097.00
2023-04-27T14:04:20.234Z,1274.00
2023-04-27T14:05:20.041Z,1321.00
2023-04-27T14:06:20.008Z,1392.00
2023-04-27T14:07:20.028Z,1122.00
2023-04-27T14:08:20.032Z,1396.00
2023-04-27T14:09:20.004Z,1609.00
2023-04-27T14:10:20.031Z,1863.00
2023-04-27T14:11:19.995Z,2011.00
2023-04-27T14:12:19.965Z,1453.00
2023-04-27T14:13:19.961Z,1278.00
2023-04-27T14:14:19.960Z,1159.00
2023-04-27T14:15:19.946Z,1013.00
2023-04-27T14:16:19.931Z,1373.00
2023-04-27T14:17:19.945Z,1454.00
2023-04-27T14:18:20.068Z,1461.00
2023-04-27T14:19:19.932Z,1778.00
2023-04-27T14:20:19.975Z,1969.00
2023-04-27T14:21:20.002Z,1791.00
2023-04-27T14:22:20.063Z,1769.00
2023-04-27T14:23:20.131Z,1752.00
2023-04-27T14:24:20.219Z,1548.00
2023-04-27T14:25:20.220Z,1927.00
2023-04-27T14:26:20.289Z,2233.00
2023-04-27T14:27:20.372Z,2462.00
2023-04-27T14:28:20.342Z,2635.00
2023-04-27T14:29:20.382Z,2842.00
2023-04-27T14:30:20.392Z,2931.00
2023-04-27T14:31:20.456Z,2848.00
2023-04-27T14:32:20.438Z,2985.00
2023-04-27T14:33:20.410Z,2939.00
2023-04-27T14:34:21.732Z,2821.00
2023-04-27T14:35:20.507Z,2852.00
2023-04-27T14:36:20.614Z,3021.00
2023-04-27T14:37:20.593Z,3166.00
2023-04-27T14:38:20.591Z,3225.00
2023-04-27T14:39:20.640Z,3205.00
2023-04-27T14:40:20.684Z,3240.00
2023-04-27T14:41:20.723Z,3232.00
2023-04-27T14:42:20.834Z,3228.00
2023-04-27T14:43:20.855Z,3214.00
2023-04-27T14:44:20.937Z,3219.00
2023-04-27T14:45:22.947Z,3245.00
2023-04-27T14:46:21.612Z,3236.00
2023-04-27T14:47:21.130Z,3290.00
2023-04-27T14:48:20.963Z,3306.00
2023-04-27T14:49:20.948Z,3355.00
2023-04-27T14:50:20.942Z,3384.00
2023-04-27T14:51:20.950Z,3417.00
2023-04-27T14:52:20.913Z,3426.00
2023-04-27T14:53:20.923Z,3458.00
2023-04-27T14:54:20.939Z,3464.00
2023-04-27T14:55:20.929Z,3482.00
2023-04-27T14:56:20.895Z,3493.00
2023-04-27T14:57:20.884Z,3483.00
2023-04-27T14:58:20.895Z,3502.00
2023-04-27T14:59:20.905Z,3489.00
2023-04-27T15:00:20.886Z,3491.00
2023-04-27T15:01:20.890Z,3495.00
2023-04-27T15:02:20.890Z,3502.00
2023-04-27T15:03:20.994Z,3493.00
2023-04-27T15:04:20.993Z,3500.00
2023-04-27T15:05:20.864Z,3503.00
2023-04-27T15:06:20.881Z,3485.00
2023-04-27T15:07:20.837Z,3501.00
2023-04-27T15:08:20.805Z,3496.00
2023-04-27T15:09:20.821Z,3491.00
2023-04-27T15:10:25.444Z,3484.00
2023-04-27T15:11:20.848Z,3486.00
2023-04-27T15:12:20.783Z,3491.00
2023-04-27T15:13:20.780Z,3493.00
2023-04-27T15:14:20.796Z,3506.00
2023-04-27T15:15:20.751Z,3508.00
2023-04-27T15:16:20.879Z,3522.00
2023-04-27T15:17:20.757Z,3517.00
2023-04-27T15:18:20.820Z,3513.00
2023-04-27T15:19:20.759Z,3511.00
2023-04-27T15:20:20.775Z,3491.00
2023-04-27T15:21:20.745Z,3503.00
2023-04-27T15:22:20.715Z,3512.00
2023-04-27T15:23:20.744Z,3516.00
2023-04-27T15:24:20.704Z,3516.00
2023-04-27T15:25:20.712Z,3512.00
2023-04-27T15:26:20.738Z,3505.00
2023-04-27T15:27:20.725Z,3498.00
2023-04-27T15:28:20.680Z,3517.00
2023-04-27T15:29:20.689Z,3504.00
2023-04-27T15:30:20.662Z,3494.00
2023-04-27T15:31:20.710Z,3503.00
2023-04-27T15:32:20.676Z,3499.00
2023-04-27T15:33:20.747Z,3501.00
2023-04-27T15:34:20.645Z,3491.00
2023-04-27T15:35:20.657Z,3501.00
2023-04-27T15:36:20.635Z,3512.00
2023-04-27T15:37:20.621Z,3504.00
2023-04-27T15:38:20.707Z,3499.00
2023-04-27T15:39:20.754Z,3490.00
2023-04-27T15:40:20.710Z,3501.00
2023-04-27T15:41:20.732Z,3485.00
2023-04-27T15:42:20.765Z,3491.00
2023-04-27T15:43:20.814Z,3487.00
2023-04-27T15:44:20.797Z,3491.00
2023-04-27T15:45:20.840Z,3494.00
2023-04-27T15:46:20.883Z,3497.00
2023-04-27T15:47:20.905Z,3477.00
2023-04-27T15:48:20.873Z,3491.00
2023-04-27T15:49:20.986Z,3478.00
2023-04-27T15:50:20.954Z,3465.00
2023-04-27T15:51:20.996Z,3477.00
2023-04-27T15:52:20.975Z,3471.00
2023-04-27T15:53:21.056Z,3460.00
2023-04-27T15:54:21.026Z,3479.00
2023-04-27T15:55:21.051Z,3468.00
2023-04-27T15:56:21.082Z,3458.00
2023-04-27T15:57:21.121Z,3447.00
2023-04-27T15:58:21.147Z,3457.00
2023-04-27T15:59:21.204Z,3463.00
2023-04-27T16:00:21.164Z,3455.00
2023-04-27T16:01:21.256Z,3451.00
2023-04-27T16:02:21.539Z,3428.00
2023-04-27T16:03:21.318Z,3448.00
2023-04-27T16:04:21.279Z,3442.00
2023-04-27T16:05:21.311Z,3443.00
2023-04-27T16:06:21.319Z,3442.00
2023-04-27T16:07:21.349Z,3430.00
2023-04-27T16:08:21.366Z,3428.00
2023-04-27T16:09:21.462Z,3428.00
2023-04-27T16:10:21.418Z,3410.00
2023-04-27T16:11:21.453Z,3416.00
2023-04-27T16:12:21.496Z,3394.00
2023-04-27T16:13:21.489Z,3399.00
2023-04-27T16:14:21.530Z,3394.00
2023-04-27T16:15:21.534Z,3394.00
2023-04-27T16:16:21.611Z,3378.00
2023-04-27T16:17:21.602Z,3389.00
2023-04-27T16:18:21.645Z,3390.00
2023-04-27T16:19:21.649Z,3379.00
2023-04-27T16:20:21.665Z,3374.00
2023-04-27T16:21:21.760Z,3384.00
2023-04-27T16:22:21.721Z,3386.00
2023-04-27T16:23:21.776Z,3384.00
2023-04-27T16:24:21.837Z,3372.00
2023-04-27T16:25:21.833Z,3391.00
2023-04-27T16:26:21.858Z,3383.00
2023-04-27T16:27:21.878Z,3379.00
2023-04-27T16:28:21.914Z,3355.00
2023-04-27T16:29:21.934Z,3352.00
2023-04-27T16:30:21.984Z,3364.00
2023-04-27T16:31:22.032Z,3353.00
2023-04-27T16:32:22.039Z,3336.00
2023-04-27T16:33:22.118Z,3339.00
2023-04-27T16:34:22.278Z,3338.00
2023-04-27T16:35:22.110Z,3333.00
2023-04-27T16:36:22.161Z,3337.00
2023-04-27T16:37:22.182Z,3322.00
2023-04-27T16:38:22.206Z,3317.00
2023-04-27T16:39:22.284Z,3320.00
2023-04-27T16:40:22.301Z,3303.00
2023-04-27T16:41:22.336Z,3312.00
2023-04-27T16:42:22.357Z,3316.00
2023-04-27T16:43:22.378Z,3311.00
2023-04-27T16:44:22.446Z,3301.00
2023-04-27T16:45:22.465Z,3309.00
2023-04-27T16:46:22.590Z,3311.00
2023-04-27T16:47:22.660Z,3299.00
2023-04-27T16:48:22.577Z,3281.00
2023-04-27T16:49:22.607Z,3290.00
2023-04-27T16:50:22.674Z,3280.00
2023-04-27T16:51:22.677Z,3283.00
2023-04-27T16:52:22.694Z,3268.00
2023-04-27T16:53:22.754Z,3268.00
2023-04-27T16:54:22.810Z,3270.00
2023-04-27T16:55:22.801Z,3246.00
2023-04-27T16:56:22.865Z,3275.00
2023-04-27T16:57:22.903Z,3252.00
2023-04-27T16:58:22.912Z,3251.00
2023-04-27T16:59:22.974Z,3250.00
2023-04-27T17:00:22.995Z,3238.00
